Dobrodošli na spletni strani vremenske postaje Senovo. Vse informacije so informativnega značaja, saj vremenska postaja ni del državne mreže meteoroloških postaj. OBVESTILO: Letni količini padavin navedeni na spletni strani je potrebno prišteti 98,1 mm, zaradi izgube podatkov.


Posebna pozornost v zvezi z vremenskimi dogajanji ni potrebna.    Posebna pozornost v zvezi z vremenskimi dogajanji ni potrebna.

Pogled proti Armezu več informacij Pogled proti Armezu


Lisca več informacij Lisca


Radar strel več informacij blitzortung!


Radar padavin več informacij rain snow radar


Obiščite še:

Template documentation
and downloads

And another site



Weather Underground, zgodovina - Tekstovno

Dnevni povzetek za Avgust 16, 2017 Enote:  Angleško    Metrično   Obe
« Predhodni Dan
Naslednji Dan »
Dnevni Tedenski Mesečni Letni Po meri
  Višja: Nižja: Povprečje:
Temperatura: 88 °F 55.6 °F 72 °F
Točka rosišča: 64 °F 53.4 °F 58.6 °F
Vlažnost: 94 % 38 % 67 %
Hitrost vetra: 4.8 mph 0 mph 1.3 mph
Sunki vetra: 11.2 mph - -
Veter:- - SE
Zračni tlak: 30.2 in 30.1 in -
Padavine: 0 in    
Historical Graphs
 
 
Tabelarni podarki za Avgust 16, 2017
Čas Temperatura Točka rosišča Zračni tlak Veter Hitrost vetra Sunki vetra Vlažnost Intenziteta padavin (urna)
00:01 60.3 °F 55.4 °F 30.1 in Calm     84 % 0 in
00:06 60.1 °F 54.9 °F 30.1 in Calm     83 % 0 in
00:11 60.1 °F 55.2 °F 30.1 in Calm     84 % 0 in
00:16 59.9 °F 55 °F 30.1 in Calm     84 % 0 in
00:21 59.9 °F 55 °F 30.1 in Calm     84 % 0 in
00:26 59.7 °F 54.9 °F 30.1 in Calm     84 % 0 in
00:31 59.7 °F 54.9 °F 30.1 in Calm     84 % 0 in
00:36 59.5 °F 54.7 °F 30.1 in Calm     84 % 0 in
00:41 59.5 °F 54.7 °F 30.1 in Calm     84 % 0 in
00:46 59.4 °F 54.5 °F 30.1 in Calm     84 % 0 in
00:51 59.4 °F 54.9 °F 30.1 in Calm     85 % 0 in
00:56 59.2 °F 54.7 °F 30.1 in Calm     85 % 0 in
01:01 59.2 °F 54.7 °F 30.1 in Calm     85 % 0 in
01:06 59.2 °F 54.7 °F 30.1 in Calm     85 % 0 in
01:11 59 °F 54.9 °F 30.1 in Calm     86 % 0 in
01:16 58.8 °F 55 °F 30.1 in Calm     87 % 0 in
01:21 58.8 °F 54.7 °F 30.1 in Calm     86 % 0 in
01:26 58.8 °F 55 °F 30.1 in Calm     87 % 0 in
01:31 58.8 °F 55 °F 30.1 in Calm     87 % 0 in
01:36 58.6 °F 54.9 °F 30.1 in Calm     87 % 0 in
01:41 58.6 °F 55 °F 30.1 in Calm     88 % 0 in
01:46 58.5 °F 54.9 °F 30.1 in Calm     88 % 0 in
01:51 58.5 °F 54.9 °F 30.1 in Calm   1.3 mph 88 % 0 in
01:56 58.5 °F 54.9 °F 30.1 in Calm   1.3 mph 88 % 0 in
02:01 58.3 °F 54.7 °F 30.1 in Calm     88 % 0 in
02:06 58.1 °F 54.7 °F 30.2 in Calm     88 % 0 in
02:11 58.1 °F 54.7 °F 30.2 in Calm     88 % 0 in
02:16 58.1 °F 54.7 °F 30.2 in Calm     88 % 0 in
02:21 57.9 °F 54.7 °F 30.1 in Calm     89 % 0 in
02:26 57.9 °F 54.7 °F 30.1 in Calm     89 % 0 in
02:31 57.9 °F 54.7 °F 30.1 in Calm     89 % 0 in
02:36 57.7 °F 54.5 °F 30.1 in Calm     89 % 0 in
02:41 57.7 °F 54.5 °F 30.1 in Calm     89 % 0 in
02:46 57.7 °F 54.5 °F 30.1 in Calm     89 % 0 in
02:51 57.6 °F 54.7 °F 30.1 in Calm     90 % 0 in
02:56 57.6 °F 54.7 °F 30.1 in Calm     90 % 0 in
03:01 57.6 °F 54.7 °F 30.1 in Calm     90 % 0 in
03:06 57.6 °F 54.7 °F 30.1 in Calm     90 % 0 in
03:11 57.4 °F 54.5 °F 30.1 in Calm     90 % 0 in
03:16 57.4 °F 54.5 °F 30.1 in Calm     90 % 0 in
03:21 57.2 °F 54.3 °F 30.1 in Calm     90 % 0 in
03:26 57.2 °F 54.3 °F 30.1 in Calm     90 % 0 in
03:31 57.2 °F 54.3 °F 30.1 in Calm     90 % 0 in
03:36 57 °F 54.3 °F 30.1 in Calm     91 % 0 in
03:42 57 °F 54.3 °F 30.1 in Calm     91 % 0 in
03:46 56.8 °F 54.1 °F 30.1 in Calm     91 % 0 in
03:52 56.8 °F 54.1 °F 30.1 in Calm     91 % 0 in
03:57 56.8 °F 54.1 °F 30.1 in Calm     91 % 0 in
04:02 56.7 °F 54.1 °F 30.1 in Calm     91 % 0 in
04:07 56.7 °F 54.1 °F 30.1 in Calm     91 % 0 in
04:12 56.7 °F 54.1 °F 30.1 in Calm     91 % 0 in
04:17 56.7 °F 54.1 °F 30.1 in Calm     91 % 0 in
04:22 56.5 °F 54 °F 30.1 in Calm     91 % 0 in
04:27 56.5 °F 54 °F 30.1 in Calm     91 % 0 in
04:32 56.3 °F 53.8 °F 30.1 in Calm     91 % 0 in
04:37 56.3 °F 54 °F 30.1 in Calm     92 % 0 in
04:42 56.3 °F 54 °F 30.1 in Calm     92 % 0 in
04:47 56.3 °F 54 °F 30.1 in Calm     92 % 0 in
04:52 56.3 °F 54 °F 30.1 in Calm     92 % 0 in
04:57 56.1 °F 53.8 °F 30.1 in Calm     92 % 0 in
05:02 56.1 °F 53.8 °F 30.1 in Calm     92 % 0 in
05:07 55.9 °F 53.6 °F 30.1 in Calm     92 % 0 in
05:12 55.9 °F 53.6 °F 30.1 in Calm     92 % 0 in
05:17 55.9 °F 53.6 °F 30.1 in Calm     92 % 0 in
05:22 55.9 °F 53.6 °F 30.1 in Calm     92 % 0 in
05:25 55.9 °F 53.6 °F 30.1 in Calm     92 % 0 in
05:27 55.8 °F 53.4 °F 30.1 in Calm     92 % 0 in
05:32 55.8 °F 53.4 °F 30.1 in Calm     92 % 0 in
05:37 55.8 °F 53.4 °F 30.1 in Calm     92 % 0 in
05:42 55.8 °F 53.4 °F 30.1 in Calm     92 % 0 in
05:47 55.8 °F 53.8 °F 30.1 in Calm     93 % 0 in
05:52 55.8 °F 53.8 °F 30.1 in Calm     93 % 0 in
05:57 55.6 °F 53.6 °F 30.1 in Calm     93 % 0 in
06:02 55.6 °F 53.6 °F 30.1 in Calm     93 % 0 in
06:07 55.6 °F 53.6 °F 30.1 in Calm     93 % 0 in
06:12 55.6 °F 53.6 °F 30.1 in Calm     93 % 0 in
06:17 55.6 °F 53.6 °F 30.1 in Calm     93 % 0 in
06:22 55.6 °F 53.6 °F 30.2 in Calm     93 % 0 in
06:27 55.6 °F 53.6 °F 30.2 in Calm     93 % 0 in
06:32 55.8 °F 53.8 °F 30.2 in Calm     93 % 0 in
06:37 55.8 °F 53.8 °F 30.1 in Calm     93 % 0 in
06:42 55.9 °F 54 °F 30.1 in Calm     93 % 0 in
06:47 55.9 °F 54 °F 30.1 in Calm     93 % 0 in
06:52 56.1 °F 54.3 °F 30.1 in Calm     94 % 0 in
06:57 56.3 °F 54.7 °F 30.1 in Calm     94 % 0 in
07:02 56.7 °F 55 °F 30.1 in Calm     94 % 0 in
07:07 56.8 °F 55 °F 30.1 in Calm     94 % 0 in
07:12 57.2 °F 55.2 °F 30.1 in Calm     93 % 0 in
07:17 57.6 °F 55.8 °F 30.1 in Calm     94 % 0 in
07:22 57.9 °F 56.1 °F 30.2 in Calm     94 % 0 in
07:27 58.3 °F 56.7 °F 30.2 in Calm     94 % 0 in
07:32 58.6 °F 56.8 °F 30.2 in Calm     94 % 0 in
07:37 58.8 °F 57 °F 30.1 in Calm     94 % 0 in
07:42 59.2 °F 57.6 °F 30.1 in East 0.1 mph 1.6 mph 94 % 0 in
07:47 59.5 °F 57.7 °F 30.1 in East 0.2 mph 1.6 mph 94 % 0 in
07:52 59.9 °F 58.3 °F 30.1 in ESE 0.1 mph 0.9 mph 94 % 0 in
07:57 60.4 °F 58.6 °F 30.1 in Calm     94 % 0 in
08:02 60.6 °F 58.8 °F 30.1 in Calm     94 % 0 in
08:07 61.3 °F 59.4 °F 30.1 in Calm   1.3 mph 93 % 0 in
08:12 61.7 °F 59.4 °F 30.1 in Calm   1.3 mph 92 % 0 in
08:17 62.2 °F 59.9 °F 30.1 in ESE 0.4 mph 2.7 mph 92 % 0 in
08:22 63 °F 60.3 °F 30.1 in ESE 1.2 mph 2.9 mph 91 % 0 in
08:27 63.7 °F 61 °F 30.1 in ESE 1.6 mph 2.9 mph 91 % 0 in
08:32 64.2 °F 61.2 °F 30.1 in ESE 1.2 mph 2.7 mph 90 % 0 in
08:37 64.9 °F 61.3 °F 30.1 in ESE 0.5 mph 2.7 mph 88 % 0 in
08:42 65.7 °F 62.1 °F 30.1 in Calm   1.1 mph 88 % 0 in
08:47 66.6 °F 61.9 °F 30.1 in ESE 0.3 mph 2.7 mph 85 % 0 in
08:52 67.5 °F 62.8 °F 30.1 in ESE 0.6 mph 2.7 mph 85 % 0 in
08:57 68 °F 63 °F 30.1 in ESE 0.6 mph 2.7 mph 84 % 0 in
09:02 68.5 °F 62.4 °F 30.1 in ESE 0.4 mph 2.7 mph 81 % 0 in
09:07 69.3 °F 63.1 °F 30.1 in ESE 0.3 mph 2.5 mph 81 % 0 in
09:12 69.8 °F 63.3 °F 30.1 in ESE 0.2 mph 2.2 mph 80 % 0 in
09:17 70.7 °F 63.9 °F 30.1 in ESE 0.3 mph 2.5 mph 79 % 0 in
09:22 71.6 °F 63.7 °F 30.1 in East 0.6 mph 2.5 mph 76 % 0 in
09:28 72 °F 63.1 °F 30.1 in East 0.7 mph 2 mph 74 % 0 in
09:33 72.1 °F 63 °F 30.1 in ESE 0.5 mph 1.6 mph 73 % 0 in
09:38 72.5 °F 63 °F 30.1 in ESE 0.2 mph 1.1 mph 72 % 0 in
09:43 73 °F 63.1 °F 30.1 in East 0.2 mph 2 mph 71 % 0 in
09:48 73.4 °F 63 °F 30.1 in SE 0.6 mph 2.9 mph 70 % 0 in
09:53 74.1 °F 63.7 °F 30.1 in SSE 1.3 mph 2.9 mph 70 % 0 in
09:58 74.7 °F 63.9 °F 30.1 in South 1.5 mph 2.9 mph 69 % 0 in
10:03 75.4 °F 63.7 °F 30.1 in South 1.2 mph 2.5 mph 67 % 0 in
10:08 75.9 °F 63.7 °F 30.1 in South 1.3 mph 3.4 mph 66 % 0 in
10:13 76.3 °F 64 °F 30.1 in SE 1.3 mph 3.4 mph 66 % 0 in
10:18 76.8 °F 63.7 °F 30.2 in ESE 1 mph 3.1 mph 64 % 0 in
10:23 77.2 °F 63.7 °F 30.2 in SSE 1.1 mph 3.6 mph 63 % 0 in
10:28 77.4 °F 63 °F 30.2 in South 1.4 mph 3.8 mph 61 % 0 in
10:33 77.7 °F 63.1 °F 30.1 in ESE 1.7 mph 5.6 mph 61 % 0 in
10:38 78.3 °F 63.1 °F 30.1 in ESE 2.7 mph 5.6 mph 60 % 0 in
10:43 78.6 °F 62.6 °F 30.1 in SE 2.8 mph 4.7 mph 58 % 0 in
10:48 79 °F 63 °F 30.1 in SSE 2.7 mph 4.7 mph 58 % 0 in
10:53 79.3 °F 61.9 °F 30.1 in SE 2.6 mph 4.7 mph 55 % 0 in
10:58 79.3 °F 60.6 °F 30.1 in East 1.6 mph 4 mph 53 % 0 in
11:03 79.7 °F 61.5 °F 30.1 in SE 1.4 mph 3.8 mph 54 % 0 in
11:08 79.7 °F 60.4 °F 30.1 in South 1.5 mph 3.8 mph 52 % 0 in
11:13 80.1 °F 61.3 °F 30.1 in SSW 1.2 mph 3.1 mph 53 % 0 in
11:18 80.2 °F 61.5 °F 30.1 in SSE 1.5 mph 3.6 mph 53 % 0 in
11:23 81.1 °F 63 °F 30.1 in SSE 1.8 mph 3.6 mph 54 % 0 in
11:28 81.5 °F 62.8 °F 30.1 in South 2 mph 3.8 mph 53 % 0 in
11:33 81.5 °F 61.2 °F 30.1 in South 1.7 mph 3.8 mph 50 % 0 in
11:38 81.7 °F 62.2 °F 30.1 in SE 2.1 mph 4.7 mph 52 % 0 in
11:43 81.7 °F 61.2 °F 30.1 in SSE 2.8 mph 4.7 mph 50 % 0 in
11:48 81.9 °F 60.3 °F 30.1 in South 1.5 mph 4.7 mph 48 % 0 in
11:53 81.9 °F 61.3 °F 30.1 in East 1 mph 4.3 mph 50 % 0 in
11:58 81.9 °F 60.8 °F 30.1 in ENE 1.8 mph 4.7 mph 49 % 0 in
12:03 82.4 °F 61.3 °F 30.1 in ENE 1.9 mph 4.7 mph 49 % 0 in
12:08 82.8 °F 61.2 °F 30.1 in ESE 2.1 mph 6 mph 48 % 0 in
12:13 83.5 °F 61.2 °F 30.1 in ESE 2.6 mph 6 mph 47 % 0 in
12:18 83.8 °F 60.8 °F 30.1 in SE 2.1 mph 5.4 mph 46 % 0 in
12:23 84 °F 61.5 °F 30.1 in East 1.5 mph 5.4 mph 47 % 0 in
12:28 84.4 °F 61.3 °F 30.1 in ESE 1.9 mph 6 mph 46 % 0 in
12:33 84.7 °F 60.4 °F 30.1 in SSE 3 mph 6 mph 44 % 0 in
12:38 84.9 °F 60.6 °F 30.1 in South 2.7 mph 5.4 mph 44 % 0 in
12:43 85.1 °F 60.6 °F 30.1 in SE 2.8 mph 5.8 mph 44 % 0 in
12:48 85.3 °F 60.3 °F 30.1 in ESE 2.6 mph 5.8 mph 43 % 0 in
12:53 85.5 °F 60.4 °F 30.1 in ESE 2.1 mph 6 mph 43 % 0 in
12:58 86 °F 60.3 °F 30.1 in ESE 3.1 mph 6.9 mph 42 % 0 in
13:03 86 °F 60.3 °F 30.1 in SSE 3.4 mph 6.9 mph 42 % 0 in
13:08 86 °F 59.5 °F 30.1 in South 3.4 mph 7.2 mph 41 % 0 in
13:09 86 °F 59.5 °F 30.1 in South 3.4 mph 7.2 mph 41 % 0 in
13:14 86.2 °F 59.7 °F 30.1 in South 3.7 mph 7.2 mph 41 % 0 in
13:19 86.2 °F 59.7 °F 30.2 in South 3.5 mph 5.8 mph 41 % 0 in
13:24 85.8 °F 59.4 °F 30.2 in South 3.1 mph 6.3 mph 41 % 0 in
13:29 85.5 °F 58.5 °F 30.2 in SSW 2.8 mph 6.3 mph 40 % 0 in
13:34 85.3 °F 58.3 °F 30.1 in SSE 3.4 mph 7.6 mph 40 % 0 in
13:39 85.6 °F 58.5 °F 30.1 in SE 3.8 mph 7.6 mph 40 % 0 in
13:44 85.8 °F 58.6 °F 30.1 in SE 2.7 mph 5.4 mph 40 % 0 in
13:49 85.8 °F 58.6 °F 30.2 in SSE 3.3 mph 6.5 mph 40 % 0 in
13:54 86 °F 58.8 °F 30.2 in SSE 3.3 mph 6.5 mph 40 % 0 in
13:59 86.2 °F 59 °F 30.2 in South 2.5 mph 4.9 mph 40 % 0 in
14:04 86.5 °F 59.4 °F 30.1 in SSW 2.9 mph 5.4 mph 40 % 0 in
14:09 86.5 °F 59.4 °F 30.1 in South 2.7 mph 6.5 mph 40 % 0 in
14:14 86.7 °F 59.5 °F 30.1 in SSE 2.9 mph 7.8 mph 40 % 0 in
14:19 86.7 °F 59.5 °F 30.1 in South 4 mph 7.8 mph 40 % 0 in
14:24 86.9 °F 59 °F 30.1 in South 4.2 mph 6.5 mph 39 % 0 in
14:29 86.7 °F 58.8 °F 30.1 in SSW 3.5 mph 6.3 mph 39 % 0 in
14:34 87.1 °F 59.2 °F 30.1 in SSW 2.8 mph 5.6 mph 39 % 0 in
14:39 87.1 °F 59.2 °F 30.1 in South 3 mph 5.6 mph 39 % 0 in
14:44 87.1 °F 59.2 °F 30.1 in SSE 2.8 mph 7.4 mph 39 % 0 in
14:49 87.3 °F 59.4 °F 30.1 in ESE 2.6 mph 7.4 mph 39 % 0 in
14:50 87.3 °F 59.4 °F 30.1 in ESE 2.6 mph 7.4 mph 39 % 0 in
14:55 87.1 °F 59.2 °F 30.1 in SE 2.2 mph 5.8 mph 39 % 0 in
15:00 87.1 °F 59.2 °F 30.1 in SSW 1.1 mph 2.9 mph 39 % 0 in
15:05 87.3 °F 59.4 °F 30.1 in ESE 1.5 mph 4.9 mph 39 % 0 in
15:10 87.1 °F 58.5 °F 30.1 in ENE 2.7 mph 4.9 mph 38 % 0 in
15:15 87.1 °F 58.5 °F 30.1 in ENE 3 mph 5.8 mph 38 % 0 in
15:20 87.3 °F 58.6 °F 30.1 in SSE 4 mph 6.3 mph 38 % 0 in
15:25 87.3 °F 59.4 °F 30.1 in South 4.7 mph 6.3 mph 39 % 0 in
15:30 87.6 °F 59.5 °F 30.1 in SSE 3.2 mph 6.3 mph 39 % 0 in
15:35 87.6 °F 59.5 °F 30.1 in SE 1.8 mph 4.3 mph 39 % 0 in
15:40 88 °F 59.2 °F 30.1 in ESE 2.3 mph 5.6 mph 38 % 0 in
15:45 88 °F 59.2 °F 30.1 in East 2.5 mph 6.3 mph 38 % 0 in
15:50 87.8 °F 59 °F 30.1 in East 2.2 mph 6.3 mph 38 % 0 in
15:55 87.8 °F 59 °F 30.1 in East 2.5 mph 5.6 mph 38 % 0 in
16:00 87.8 °F 59 °F 30.1 in East 2.8 mph 5.6 mph 38 % 0 in
16:05 87.4 °F 58.6 °F 30.1 in ENE 2.7 mph 8.7 mph 38 % 0 in
16:10 87.6 °F 59.5 °F 30.1 in ENE 3.5 mph 8.7 mph 39 % 0 in
16:15 87.8 °F 59.7 °F 30.1 in ENE 3.6 mph 8.7 mph 39 % 0 in
16:20 87.8 °F 59.7 °F 30.1 in East 2.7 mph 5.8 mph 39 % 0 in
16:25 87.6 °F 59.5 °F 30.1 in ENE 2.9 mph 5.8 mph 39 % 0 in
16:30 87.4 °F 59.4 °F 30.1 in ENE 2.6 mph 5.4 mph 39 % 0 in
16:35 87.3 °F 60.1 °F 30.1 in East 2.6 mph 5.8 mph 40 % 0 in
16:40 87.1 °F 59.7 °F 30.1 in East 2.9 mph 5.8 mph 40 % 0 in
16:45 87.1 °F 59.7 °F 30.1 in East 2.9 mph 5.4 mph 40 % 0 in
16:50 86.9 °F 59.7 °F 30.1 in East 2.4 mph 4.9 mph 40 % 0 in
16:55 86.9 °F 59.7 °F 30.1 in East 2.3 mph 5.8 mph 40 % 0 in
17:00 86.9 °F 59.7 °F 30.1 in ESE 2.5 mph 5.8 mph 40 % 0 in
17:05 86.7 °F 59.5 °F 30.1 in ESE 1.9 mph 6 mph 40 % 0 in
17:10 86.5 °F 59.4 °F 30.1 in East 1.9 mph 6 mph 40 % 0 in
17:16 86.5 °F 60.1 °F 30.1 in ESE 2.4 mph 3.8 mph 41 % 0 in
17:21 86.7 °F 59.5 °F 30.1 in ESE 2.1 mph 3.8 mph 40 % 0 in
17:26 86.5 °F 59.4 °F 30.1 in ESE 2.4 mph 6.5 mph 40 % 0 in
17:31 86.4 °F 59.2 °F 30.1 in ESE 2.3 mph 6.5 mph 40 % 0 in
17:36 86.2 °F 59 °F 30.1 in ESE 1.6 mph 4.7 mph 40 % 0 in
17:41 86 °F 58.8 °F 30.1 in ESE 1.5 mph 4.7 mph 40 % 0 in
17:46 85.5 °F 59.2 °F 30.1 in East 1.7 mph 3.8 mph 41 % 0 in
17:51 84.7 °F 59.2 °F 30.1 in ESE 2 mph 3.8 mph 42 % 0 in
17:56 84.2 °F 58.6 °F 30.1 in ESE 1.5 mph 3.8 mph 42 % 0 in
18:01 83.3 °F 59.2 °F 30.1 in South 1.1 mph 3.1 mph 44 % 0 in
18:06 82.2 °F 58.8 °F 30.1 in SW 0.8 mph 3.1 mph 45 % 0 in
18:11 80.8 °F 58.6 °F 30.1 in WSW 0.2 mph 2 mph 47 % 0 in
18:16 80.1 °F 59.2 °F 30.1 in West 0.5 mph 2.2 mph 49 % 0 in
18:21 79.3 °F 59.5 °F 30.1 in WNW 0.7 mph 2.2 mph 51 % 0 in
18:26 78.6 °F 60.6 °F 30.1 in NW 0.5 mph 2.5 mph 54 % 0 in
18:31 78.3 °F 60.3 °F 30.1 in NNW 0.7 mph 2.9 mph 54 % 0 in
18:36 77.9 °F 60.4 °F 30.1 in NNW 0.6 mph 2.9 mph 55 % 0 in
18:41 77.5 °F 60.6 °F 30.1 in NW 0.1 mph 2 mph 56 % 0 in
18:46 77.4 °F 61.3 °F 30.1 in North 0.1 mph 2.2 mph 58 % 0 in
18:51 77 °F 61.5 °F 30.1 in North 0.1 mph 2.2 mph 59 % 0 in
18:56 76.8 °F 62.2 °F 30.1 in Calm     61 % 0 in
18:57 76.8 °F 62.2 °F 30.1 in Calm     61 % 0 in
19:02 76.5 °F 62.1 °F 30.1 in Calm     61 % 0 in
19:07 76.3 °F 62.8 °F 30.1 in Calm     63 % 0 in
19:12 75.9 °F 62.4 °F 30.1 in Calm   2.2 mph 63 % 0 in
19:17 75.6 °F 63 °F 30.1 in NW 0.4 mph 2.9 mph 65 % 0 in
19:22 75.2 °F 62.6 °F 30.1 in NW 0.4 mph 2.9 mph 65 % 0 in
19:27 75 °F 63 °F 30.1 in Calm     66 % 0 in
19:32 74.8 °F 62.8 °F 30.1 in Calm     66 % 0 in
19:37 74.5 °F 62.8 °F 30.1 in Calm     67 % 0 in
19:42 74.3 °F 62.2 °F 30.1 in NNW 0.1 mph 3.1 mph 66 % 0 in
19:47 74.5 °F 61.9 °F 30.1 in NE 1.1 mph 4.9 mph 65 % 0 in
19:52 74.8 °F 61 °F 30.1 in NE 2.3 mph 5.6 mph 62 % 0 in
19:57 75.6 °F 60.3 °F 30.1 in NE 3.1 mph 6.5 mph 59 % 0 in
20:02 75.9 °F 59.5 °F 30.1 in ENE 4.1 mph 8.7 mph 57 % 0 in
20:07 76.3 °F 59.4 °F 30.1 in ENE 4.8 mph 11.2 mph 56 % 0 in
20:12 76.5 °F 59.5 °F 30.1 in ENE 3.5 mph 11.2 mph 56 % 0 in
20:17 76.6 °F 59.7 °F 30.1 in ENE 3.5 mph 7.8 mph 56 % 0 in
20:22 76.6 °F 59.4 °F 30.1 in ENE 4.3 mph 7.8 mph 55 % 0 in
20:27 76.5 °F 59.2 °F 30.1 in ENE 3.3 mph 6.5 mph 55 % 0 in
20:32 76.5 °F 59.2 °F 30.1 in ENE 2 mph 4.9 mph 55 % 0 in
20:37 76.3 °F 59.4 °F 30.1 in ENE 0.6 mph 4 mph 56 % 0 in
20:42 76.1 °F 59.7 °F 30.1 in East 1 mph 4.3 mph 57 % 0 in
20:47 75.9 °F 60.1 °F 30.1 in East 1.8 mph 6.3 mph 58 % 0 in
20:52 76.1 °F 60.3 °F 30.1 in East 2.5 mph 6.3 mph 58 % 0 in
20:57 76.1 °F 59.7 °F 30.1 in East 2.9 mph 5.8 mph 57 % 0 in
21:02 76.3 °F 59.9 °F 30.1 in East 2.4 mph 4.9 mph 57 % 0 in
21:07 76.1 °F 59.7 °F 30.1 in East 1.5 mph 4.7 mph 57 % 0 in
21:13 75.9 °F 60.1 °F 30.1 in East 1.1 mph 2.7 mph 58 % 0 in
21:18 75.7 °F 59.9 °F 30.1 in East 1.8 mph 3.6 mph 58 % 0 in
21:23 75.6 °F 59.7 °F 30.1 in ENE 2.1 mph 3.6 mph 58 % 0 in
21:28 75.4 °F 60.1 °F 30.1 in East 2.1 mph 3.8 mph 59 % 0 in
21:34 75.2 °F 59.9 °F 30.1 in ESE 1.8 mph 3.8 mph 59 % 0 in
21:39 75 °F 60.3 °F 30.1 in ESE 1.5 mph 3.8 mph 60 % 0 in
21:44 74.8 °F 60.4 °F 30.1 in East 1.7 mph 4 mph 61 % 0 in
21:49 74.7 °F 60.3 °F 30.1 in ESE 2 mph 4 mph 61 % 0 in
21:54 74.5 °F 60.6 °F 30.1 in ESE 2.3 mph 5.8 mph 62 % 0 in
21:59 74.3 °F 60.4 °F 30.1 in East 2.4 mph 5.8 mph 62 % 0 in
22:04 74.3 °F 60.4 °F 30.1 in East 1.9 mph 4.9 mph 62 % 0 in
22:09 74.1 °F 60.6 °F 30.1 in East 1 mph 3.4 mph 63 % 0 in
22:10 74.1 °F 60.6 °F 30.1 in East 1 mph 3.4 mph 63 % 0 in
22:15 73.9 °F 60.4 °F 30.1 in East 0.5 mph 3.6 mph 63 % 0 in
22:20 73.9 °F 60.4 °F 30.1 in ENE 0.7 mph 3.6 mph 63 % 0 in
22:25 73.9 °F 60.4 °F 30.1 in ENE 1.2 mph 3.4 mph 63 % 0 in
22:30 73.9 °F 60.4 °F 30.1 in ENE 1.6 mph 3.4 mph 63 % 0 in
22:35 73.9 °F 60.4 °F 30.1 in ENE 1.3 mph 3.4 mph 63 % 0 in
22:40 73.9 °F 61 °F 30.1 in East 1.2 mph 5.4 mph 64 % 0 in
22:41 73.8 °F 60.8 °F 30.1 in East 1.2 mph 5.4 mph 64 % 0 in
22:46 73.8 °F 60.8 °F 30.1 in ENE 1.5 mph 5.4 mph 64 % 0 in
22:51 73.8 °F 60.8 °F 30.1 in ENE 1.5 mph 5.6 mph 64 % 0 in
22:56 73.8 °F 60.4 °F 30.1 in ENE 2 mph 6 mph 63 % 0 in
23:01 73.8 °F 60.4 °F 30.1 in ENE 2.8 mph 8.1 mph 63 % 0 in
23:06 73.8 °F 60.4 °F 30.1 in ENE 3.3 mph 8.1 mph 63 % 0 in
23:11 73.9 °F 60.1 °F 30.1 in ENE 2.9 mph 6.5 mph 62 % 0 in
23:16 73.9 °F 60.1 °F 30.1 in ENE 2.7 mph 6.5 mph 62 % 0 in
23:21 73.9 °F 59.5 °F 30.1 in ENE 2.8 mph 8.7 mph 61 % 0 in
23:26 73.8 °F 59.5 °F 30.1 in ENE 2.5 mph 8.7 mph 61 % 0 in
23:31 73.8 °F 59.5 °F 30.1 in East 2.5 mph 6.3 mph 61 % 0 in
23:36 73.8 °F 59.5 °F 30.1 in East 2.7 mph 6.3 mph 61 % 0 in
23:41 73.8 °F 59.5 °F 30.1 in East 2.9 mph 6.9 mph 61 % 0 in
23:46 73.8 °F 59.5 °F 30.1 in ESE 3.3 mph 6.9 mph 61 % 0 in
23:51 73.8 °F 59.5 °F 30.1 in ESE 2.7 mph 6 mph 61 % 0 in
23:56 73.8 °F 59.5 °F 30.1 in ESE 2.6 mph 5.8 mph 61 % 0 in
23:57 73.8 °F 59.5 °F 30.1 in ESE 2.8 mph 5.8 mph 61 % 0 in
Vremenska postaja Senovo
Podatki zbrani iz Weather Underground - 3 mb

Script developed by  Jim McMurry - jmcmurry@mwt.net Adapted for the template by  Wim van der Kuil - Leuven-Template.eu

Vremenski podatki so objavljeni na:

WeatherCloud

Weather Underground

AWEKAS

HAMweather, WeatherForYou, PWS Weather

MapView

Geostik

Slovenia weather network

Oprema, ki se uporablja:

Vremenski program
Cumulus

Cumulus